sensor_id;sensor_type;location;lat;lon;timestamp;P1;durP1;ratioP1;P2;durP2;ratioP2
54665;SDS011;40566;50.006;36.180;2022-09-19T00:04:57;2.05;;;0.40;;
54665;SDS011;40566;50.006;36.180;2022-09-19T00:09:58;0.30;;;0.30;;
54665;SDS011;40566;50.006;36.180;2022-09-19T00:14:59;1.20;;;0.38;;
54665;SDS011;40566;50.006;36.180;2022-09-19T00:19:59;0.50;;;0.35;;
54665;SDS011;40566;50.006;36.180;2022-09-19T00:25:00;1.58;;;0.50;;
54665;SDS011;40566;50.006;36.180;2022-09-19T00:30:01;0.47;;;0.30;;
54665;SDS011;40566;50.006;36.180;2022-09-19T00:35:01;0.50;;;0.30;;
54665;SDS011;40566;50.006;36.180;2022-09-19T00:40:02;2.63;;;0.60;;
54665;SDS011;40566;50.006;36.180;2022-09-19T00:45:06;1.85;;;0.50;;
54665;SDS011;40566;50.006;36.180;2022-09-19T00:50:14;1.90;;;0.50;;
54665;SDS011;40566;50.006;36.180;2022-09-19T00:55:19;0.38;;;0.30;;
54665;SDS011;40566;50.006;36.180;2022-09-19T01:00:21;1.13;;;0.47;;
54665;SDS011;40566;50.006;36.180;2022-09-19T01:05:25;0.95;;;0.50;;
54665;SDS011;40566;50.006;36.180;2022-09-19T01:10:34;0.45;;;0.30;;
54665;SDS011;40566;50.006;36.180;2022-09-19T01:31:39;1.75;;;0.40;;
54665;SDS011;40566;50.006;36.180;2022-09-19T01:36:45;0.60;;;0.40;;
54665;SDS011;40566;50.006;36.180;2022-09-19T01:41:51;0.95;;;0.40;;
54665;SDS011;40566;50.006;36.180;2022-09-19T01:52:20;3.05;;;0.60;;
54665;SDS011;40566;50.006;36.180;2022-09-19T01:57:36;0.60;;;0.45;;
54665;SDS011;40566;50.006;36.180;2022-09-19T02:13:01;0.73;;;0.40;;
54665;SDS011;40566;50.006;36.180;2022-09-19T02:18:09;0.65;;;0.47;;
54665;SDS011;40566;50.006;36.180;2022-09-19T02:23:30;0.73;;;0.50;;
54665;SDS011;40566;50.006;36.180;2022-09-19T02:28:41;1.20;;;0.70;;
54665;SDS011;40566;50.006;36.180;2022-09-19T02:33:44;1.17;;;0.50;;
54665;SDS011;40566;50.006;36.180;2022-09-19T02:49:59;1.42;;;0.52;;
54665;SDS011;40566;50.006;36.180;2022-09-19T02:55:16;0.95;;;0.40;;
54665;SDS011;40566;50.006;36.180;2022-09-19T03:00:23;0.52;;;0.40;;
54665;SDS011;40566;50.006;36.180;2022-09-19T03:05:26;1.45;;;0.50;;
54665;SDS011;40566;50.006;36.180;2022-09-19T03:10:37;0.93;;;0.57;;
54665;SDS011;40566;50.006;36.180;2022-09-19T03:15:46;1.63;;;0.50;;
54665;SDS011;40566;50.006;36.180;2022-09-19T03:20:53;0.65;;;0.50;;
54665;SDS011;40566;50.006;36.180;2022-09-19T03:25:56;0.82;;;0.50;;
54665;SDS011;40566;50.006;36.180;2022-09-19T03:30:56;1.45;;;0.65;;
54665;SDS011;40566;50.006;36.180;2022-09-19T03:35:59;1.20;;;0.50;;
54665;SDS011;40566;50.006;36.180;2022-09-19T03:41:06;0.63;;;0.50;;
54665;SDS011;40566;50.006;36.180;2022-09-19T03:46:07;1.05;;;0.43;;
54665;SDS011;40566;50.006;36.180;2022-09-19T03:51:07;1.70;;;0.70;;
54665;SDS011;40566;50.006;36.180;2022-09-19T03:56:08;1.50;;;0.60;;
54665;SDS011;40566;50.006;36.180;2022-09-19T04:01:13;0.80;;;0.50;;
54665;SDS011;40566;50.006;36.180;2022-09-19T04:06:15;3.45;;;0.60;;
54665;SDS011;40566;50.006;36.180;2022-09-19T04:11:16;1.33;;;0.70;;
54665;SDS011;40566;50.006;36.180;2022-09-19T04:16:16;2.97;;;0.65;;
54665;SDS011;40566;50.006;36.180;2022-09-19T04:21:17;2.67;;;0.80;;
54665;SDS011;40566;50.006;36.180;2022-09-19T04:26:18;0.93;;;0.68;;
54665;SDS011;40566;50.006;36.180;2022-09-19T04:31:21;3.97;;;0.70;;
54665;SDS011;40566;50.006;36.180;2022-09-19T04:36:22;1.48;;;0.77;;
54665;SDS011;40566;50.006;36.180;2022-09-19T04:41:24;3.25;;;0.98;;
54665;SDS011;40566;50.006;36.180;2022-09-19T04:46:24;2.13;;;1.05;;
54665;SDS011;40566;50.006;36.180;2022-09-19T04:51:26;3.90;;;1.10;;
54665;SDS011;40566;50.006;36.180;2022-09-19T04:56:30;2.88;;;1.00;;
54665;SDS011;40566;50.006;36.180;2022-09-19T05:01:31;1.63;;;0.95;;
54665;SDS011;40566;50.006;36.180;2022-09-19T05:06:31;1.90;;;0.73;;
54665;SDS011;40566;50.006;36.180;2022-09-19T05:11:32;1.63;;;0.80;;
54665;SDS011;40566;50.006;36.180;2022-09-19T05:16:33;1.77;;;0.85;;
54665;SDS011;40566;50.006;36.180;2022-09-19T05:21:34;2.85;;;0.80;;
54665;SDS011;40566;50.006;36.180;2022-09-19T05:26:37;1.48;;;0.90;;
54665;SDS011;40566;50.006;36.180;2022-09-19T05:31:41;2.17;;;0.90;;
54665;SDS011;40566;50.006;36.180;2022-09-19T05:36:45;1.40;;;0.80;;
54665;SDS011;40566;50.006;36.180;2022-09-19T05:41:47;2.22;;;0.90;;
54665;SDS011;40566;50.006;36.180;2022-09-19T05:46:48;1.42;;;0.90;;
54665;SDS011;40566;50.006;36.180;2022-09-19T05:51:49;4.50;;;1.60;;
54665;SDS011;40566;50.006;36.180;2022-09-19T05:56:55;1.60;;;0.98;;
54665;SDS011;40566;50.006;36.180;2022-09-19T06:01:56;3.22;;;0.85;;
54665;SDS011;40566;50.006;36.180;2022-09-19T06:07:02;2.78;;;1.10;;
54665;SDS011;40566;50.006;36.180;2022-09-19T06:12:05;1.35;;;0.82;;
54665;SDS011;40566;50.006;36.180;2022-09-19T06:17:05;2.05;;;1.00;;
54665;SDS011;40566;50.006;36.180;2022-09-19T06:22:06;2.35;;;0.90;;
54665;SDS011;40566;50.006;36.180;2022-09-19T06:27:06;1.58;;;0.90;;
54665;SDS011;40566;50.006;36.180;2022-09-19T06:32:07;2.10;;;1.00;;
54665;SDS011;40566;50.006;36.180;2022-09-19T06:37:08;2.55;;;1.15;;
54665;SDS011;40566;50.006;36.180;2022-09-19T06:42:09;1.30;;;1.00;;
54665;SDS011;40566;50.006;36.180;2022-09-19T06:47:09;1.75;;;1.02;;
54665;SDS011;40566;50.006;36.180;2022-09-19T06:52:10;2.33;;;1.10;;
54665;SDS011;40566;50.006;36.180;2022-09-19T06:57:11;2.20;;;1.10;;
54665;SDS011;40566;50.006;36.180;2022-09-19T07:02:11;3.38;;;1.10;;
54665;SDS011;40566;50.006;36.180;2022-09-19T07:07:12;2.70;;;1.02;;
54665;SDS011;40566;50.006;36.180;2022-09-19T07:12:14;2.42;;;1.17;;
54665;SDS011;40566;50.006;36.180;2022-09-19T07:17:14;4.07;;;1.27;;
54665;SDS011;40566;50.006;36.180;2022-09-19T07:22:16;2.88;;;1.00;;
54665;SDS011;40566;50.006;36.180;2022-09-19T07:27:16;6.18;;;1.60;;
54665;SDS011;40566;50.006;36.180;2022-09-19T07:32:17;2.45;;;1.10;;
54665;SDS011;40566;50.006;36.180;2022-09-19T07:37:18;4.28;;;1.30;;
54665;SDS011;40566;50.006;36.180;2022-09-19T07:42:18;3.30;;;1.30;;
54665;SDS011;40566;50.006;36.180;2022-09-19T07:47:20;2.40;;;1.30;;
54665;SDS011;40566;50.006;36.180;2022-09-19T07:52:26;1.83;;;1.08;;
54665;SDS011;40566;50.006;36.180;2022-09-19T07:57:27;2.28;;;1.20;;
54665;SDS011;40566;50.006;36.180;2022-09-19T08:02:29;3.10;;;1.08;;
54665;SDS011;40566;50.006;36.180;2022-09-19T08:07:30;2.38;;;1.10;;
54665;SDS011;40566;50.006;36.180;2022-09-19T08:12:30;2.85;;;1.20;;
54665;SDS011;40566;50.006;36.180;2022-09-19T08:17:32;3.50;;;1.00;;
54665;SDS011;40566;50.006;36.180;2022-09-19T08:22:32;2.83;;;1.17;;
54665;SDS011;40566;50.006;36.180;2022-09-19T08:27:34;2.15;;;1.20;;
54665;SDS011;40566;50.006;36.180;2022-09-19T08:32:37;2.85;;;1.17;;
54665;SDS011;40566;50.006;36.180;2022-09-19T08:37:37;3.05;;;1.13;;
54665;SDS011;40566;50.006;36.180;2022-09-19T08:48:01;2.15;;;1.23;;
54665;SDS011;40566;50.006;36.180;2022-09-19T08:53:06;7.53;;;1.40;;
54665;SDS011;40566;50.006;36.180;2022-09-19T08:58:16;3.03;;;1.30;;
54665;SDS011;40566;50.006;36.180;2022-09-19T09:03:32;3.25;;;1.50;;
54665;SDS011;40566;50.006;36.180;2022-09-19T09:20:24;5.37;;;1.63;;
54665;SDS011;40566;50.006;36.180;2022-09-19T09:25:38;2.05;;;1.20;;
54665;SDS011;40566;50.006;36.180;2022-09-19T09:30:43;2.35;;;1.20;;
54665;SDS011;40566;50.006;36.180;2022-09-19T09:35:48;3.83;;;1.65;;
54665;SDS011;40566;50.006;36.180;2022-09-19T09:41:11;3.72;;;1.60;;
54665;SDS011;40566;50.006;36.180;2022-09-19T09:57:17;4.72;;;1.83;;
54665;SDS011;40566;50.006;36.180;2022-09-19T10:02:26;4.75;;;1.80;;
54665;SDS011;40566;50.006;36.180;2022-09-19T10:13:27;3.83;;;1.55;;
54665;SDS011;40566;50.006;36.180;2022-09-19T10:18:39;3.42;;;1.55;;
54665;SDS011;40566;50.006;36.180;2022-09-19T10:23:43;1.65;;;1.17;;
54665;SDS011;40566;50.006;36.180;2022-09-19T10:28:49;5.75;;;1.88;;
54665;SDS011;40566;50.006;36.180;2022-09-19T10:33:53;3.53;;;1.88;;
54665;SDS011;40566;50.006;36.180;2022-09-19T10:38:55;4.38;;;1.83;;
54665;SDS011;40566;50.006;36.180;2022-09-19T10:44:00;3.17;;;1.60;;
54665;SDS011;40566;50.006;36.180;2022-09-19T10:49:14;3.60;;;1.60;;
54665;SDS011;40566;50.006;36.180;2022-09-19T10:59:37;3.22;;;1.65;;
54665;SDS011;40566;50.006;36.180;2022-09-19T11:04:39;2.95;;;1.50;;
54665;SDS011;40566;50.006;36.180;2022-09-19T11:09:42;3.72;;;1.80;;
54665;SDS011;40566;50.006;36.180;2022-09-19T11:14:47;3.45;;;1.67;;
54665;SDS011;40566;50.006;36.180;2022-09-19T11:30:16;3.70;;;1.67;;
54665;SDS011;40566;50.006;36.180;2022-09-19T11:35:25;2.33;;;1.63;;
54665;SDS011;40566;50.006;36.180;2022-09-19T11:51:15;4.07;;;1.80;;
54665;SDS011;40566;50.006;36.180;2022-09-19T11:56:54;6.35;;;1.80;;
54665;SDS011;40566;50.006;36.180;2022-09-19T12:18:54;2.90;;;1.52;;
54665;SDS011;40566;50.006;36.180;2022-09-19T12:24:03;2.53;;;1.38;;
54665;SDS011;40566;50.006;36.180;2022-09-19T12:29:34;2.75;;;1.60;;
54665;SDS011;40566;50.006;36.180;2022-09-19T12:35:28;2.75;;;1.50;;
54665;SDS011;40566;50.006;36.180;2022-09-19T12:45:43;2.60;;;1.48;;
54665;SDS011;40566;50.006;36.180;2022-09-19T12:50:54;1.50;;;1.02;;
54665;SDS011;40566;50.006;36.180;2022-09-19T13:01:37;3.17;;;1.60;;
54665;SDS011;40566;50.006;36.180;2022-09-19T13:06:43;16.77;;;7.82;;
54665;SDS011;40566;50.006;36.180;2022-09-19T13:11:47;5.05;;;2.10;;
54665;SDS011;40566;50.006;36.180;2022-09-19T13:16:56;7.75;;;3.75;;
54665;SDS011;40566;50.006;36.180;2022-09-19T13:22:18;2.33;;;1.40;;
54665;SDS011;40566;50.006;36.180;2022-09-19T13:27:18;2.20;;;1.33;;
54665;SDS011;40566;50.006;36.180;2022-09-19T13:37:47;3.20;;;1.38;;
54665;SDS011;40566;50.006;36.180;2022-09-19T13:43:01;3.55;;;1.40;;
54665;SDS011;40566;50.006;36.180;2022-09-19T13:48:11;2.70;;;1.40;;
54665;SDS011;40566;50.006;36.180;2022-09-19T13:53:30;3.35;;;1.58;;
54665;SDS011;40566;50.006;36.180;2022-09-19T13:58:36;4.35;;;1.55;;
54665;SDS011;40566;50.006;36.180;2022-09-19T14:03:47;3.10;;;1.30;;
54665;SDS011;40566;50.006;36.180;2022-09-19T14:19:42;1.92;;;1.15;;
54665;SDS011;40566;50.006;36.180;2022-09-19T14:24:43;1.90;;;1.10;;
54665;SDS011;40566;50.006;36.180;2022-09-19T14:29:52;2.55;;;1.27;;
54665;SDS011;40566;50.006;36.180;2022-09-19T14:40:42;2.70;;;1.50;;
54665;SDS011;40566;50.006;36.180;2022-09-19T14:56:30;4.32;;;1.48;;
54665;SDS011;40566;50.006;36.180;2022-09-19T15:01:35;3.03;;;1.42;;
54665;SDS011;40566;50.006;36.180;2022-09-19T15:06:42;3.55;;;1.67;;
54665;SDS011;40566;50.006;36.180;2022-09-19T15:11:50;2.58;;;1.30;;
54665;SDS011;40566;50.006;36.180;2022-09-19T15:17:05;4.30;;;1.40;;
54665;SDS011;40566;50.006;36.180;2022-09-19T15:27:22;3.10;;;1.50;;
54665;SDS011;40566;50.006;36.180;2022-09-19T15:32:26;4.68;;;1.92;;
54665;SDS011;40566;50.006;36.180;2022-09-19T15:37:31;4.03;;;1.92;;
54665;SDS011;40566;50.006;36.180;2022-09-19T15:42:33;5.40;;;2.00;;
54665;SDS011;40566;50.006;36.180;2022-09-19T15:47:39;4.60;;;2.13;;
54665;SDS011;40566;50.006;36.180;2022-09-19T15:52:39;6.28;;;2.42;;
54665;SDS011;40566;50.006;36.180;2022-09-19T15:57:48;9.00;;;2.92;;
54665;SDS011;40566;50.006;36.180;2022-09-19T16:03:02;12.48;;;6.53;;
54665;SDS011;40566;50.006;36.180;2022-09-19T16:08:25;7.82;;;3.55;;
54665;SDS011;40566;50.006;36.180;2022-09-19T16:13:47;10.13;;;4.47;;
54665;SDS011;40566;50.006;36.180;2022-09-19T16:18:48;8.50;;;3.70;;
54665;SDS011;40566;50.006;36.180;2022-09-19T16:23:49;7.05;;;3.10;;
54665;SDS011;40566;50.006;36.180;2022-09-19T16:28:52;9.82;;;4.22;;
54665;SDS011;40566;50.006;36.180;2022-09-19T16:33:55;10.45;;;4.63;;
54665;SDS011;40566;50.006;36.180;2022-09-19T16:49:32;12.32;;;6.20;;
54665;SDS011;40566;50.006;36.180;2022-09-19T16:54:34;9.88;;;5.32;;
54665;SDS011;40566;50.006;36.180;2022-09-19T16:59:35;10.30;;;5.18;;
54665;SDS011;40566;50.006;36.180;2022-09-19T17:04:37;10.27;;;4.95;;
54665;SDS011;40566;50.006;36.180;2022-09-19T17:09:38;9.63;;;5.30;;
54665;SDS011;40566;50.006;36.180;2022-09-19T17:14:39;10.48;;;6.18;;
54665;SDS011;40566;50.006;36.180;2022-09-19T17:19:40;10.68;;;5.72;;
54665;SDS011;40566;50.006;36.180;2022-09-19T17:24:41;13.90;;;6.93;;
54665;SDS011;40566;50.006;36.180;2022-09-19T17:29:42;13.02;;;6.63;;
54665;SDS011;40566;50.006;36.180;2022-09-19T17:34:43;10.10;;;5.18;;
54665;SDS011;40566;50.006;36.180;2022-09-19T17:39:43;9.45;;;5.07;;
54665;SDS011;40566;50.006;36.180;2022-09-19T17:44:44;9.88;;;5.00;;
54665;SDS011;40566;50.006;36.180;2022-09-19T17:49:44;10.32;;;5.20;;
54665;SDS011;40566;50.006;36.180;2022-09-19T17:54:45;13.00;;;6.28;;
54665;SDS011;40566;50.006;36.180;2022-09-19T17:59:46;10.65;;;4.13;;
54665;SDS011;40566;50.006;36.180;2022-09-19T18:04:47;10.73;;;4.82;;
54665;SDS011;40566;50.006;36.180;2022-09-19T18:09:48;12.88;;;4.80;;
54665;SDS011;40566;50.006;36.180;2022-09-19T18:14:48;10.65;;;4.47;;
54665;SDS011;40566;50.006;36.180;2022-09-19T18:19:50;14.43;;;5.22;;
54665;SDS011;40566;50.006;36.180;2022-09-19T18:24:52;12.10;;;5.07;;
54665;SDS011;40566;50.006;36.180;2022-09-19T18:29:54;10.80;;;5.05;;
54665;SDS011;40566;50.006;36.180;2022-09-19T18:34:54;8.82;;;4.13;;
54665;SDS011;40566;50.006;36.180;2022-09-19T18:39:57;9.30;;;4.22;;
54665;SDS011;40566;50.006;36.180;2022-09-19T18:44:58;7.88;;;3.78;;
54665;SDS011;40566;50.006;36.180;2022-09-19T18:49:59;12.60;;;4.07;;
54665;SDS011;40566;50.006;36.180;2022-09-19T18:55:02;9.52;;;4.75;;
54665;SDS011;40566;50.006;36.180;2022-09-19T19:00:03;8.88;;;4.65;;
54665;SDS011;40566;50.006;36.180;2022-09-19T19:05:04;11.38;;;4.85;;
54665;SDS011;40566;50.006;36.180;2022-09-19T19:10:06;13.00;;;6.03;;
54665;SDS011;40566;50.006;36.180;2022-09-19T19:15:07;9.82;;;5.05;;
54665;SDS011;40566;50.006;36.180;2022-09-19T19:20:09;11.45;;;6.03;;
54665;SDS011;40566;50.006;36.180;2022-09-19T19:25:10;11.63;;;5.90;;
54665;SDS011;40566;50.006;36.180;2022-09-19T19:30:11;13.70;;;6.55;;
54665;SDS011;40566;50.006;36.180;2022-09-19T19:35:13;13.68;;;6.43;;
54665;SDS011;40566;50.006;36.180;2022-09-19T19:40:14;13.15;;;6.85;;
54665;SDS011;40566;50.006;36.180;2022-09-19T19:45:15;14.75;;;6.25;;
54665;SDS011;40566;50.006;36.180;2022-09-19T19:50:15;14.38;;;6.57;;
54665;SDS011;40566;50.006;36.180;2022-09-19T19:55:16;13.50;;;6.60;;
54665;SDS011;40566;50.006;36.180;2022-09-19T20:00:17;13.43;;;6.63;;
54665;SDS011;40566;50.006;36.180;2022-09-19T20:05:17;11.20;;;5.90;;
54665;SDS011;40566;50.006;36.180;2022-09-19T20:10:18;15.60;;;6.60;;
54665;SDS011;40566;50.006;36.180;2022-09-19T20:15:18;12.50;;;6.32;;
54665;SDS011;40566;50.006;36.180;2022-09-19T20:20:19;13.02;;;6.43;;
54665;SDS011;40566;50.006;36.180;2022-09-19T20:25:21;14.00;;;5.82;;
54665;SDS011;40566;50.006;36.180;2022-09-19T20:30:25;13.57;;;6.18;;
54665;SDS011;40566;50.006;36.180;2022-09-19T20:35:27;12.98;;;5.40;;
54665;SDS011;40566;50.006;36.180;2022-09-19T20:40:29;11.90;;;5.80;;
54665;SDS011;40566;50.006;36.180;2022-09-19T20:45:29;12.55;;;6.15;;
54665;SDS011;40566;50.006;36.180;2022-09-19T20:50:30;13.55;;;5.88;;
54665;SDS011;40566;50.006;36.180;2022-09-19T20:55:30;13.55;;;5.85;;
54665;SDS011;40566;50.006;36.180;2022-09-19T21:00:31;11.85;;;6.38;;
54665;SDS011;40566;50.006;36.180;2022-09-19T21:05:32;15.85;;;6.50;;
54665;SDS011;40566;50.006;36.180;2022-09-19T21:10:32;13.73;;;6.68;;
54665;SDS011;40566;50.006;36.180;2022-09-19T21:15:36;12.98;;;5.85;;
54665;SDS011;40566;50.006;36.180;2022-09-19T21:20:37;11.32;;;5.97;;
54665;SDS011;40566;50.006;36.180;2022-09-19T21:25:38;12.52;;;6.50;;
54665;SDS011;40566;50.006;36.180;2022-09-19T21:30:38;9.90;;;5.20;;
54665;SDS011;40566;50.006;36.180;2022-09-19T21:35:39;11.40;;;6.18;;
54665;SDS011;40566;50.006;36.180;2022-09-19T21:40:39;11.45;;;6.43;;
54665;SDS011;40566;50.006;36.180;2022-09-19T21:45:41;12.07;;;6.38;;
54665;SDS011;40566;50.006;36.180;2022-09-19T21:50:42;12.80;;;6.18;;
54665;SDS011;40566;50.006;36.180;2022-09-19T21:55:49;11.45;;;6.18;;
54665;SDS011;40566;50.006;36.180;2022-09-19T22:00:54;11.45;;;6.03;;
54665;SDS011;40566;50.006;36.180;2022-09-19T22:05:58;12.63;;;6.07;;
54665;SDS011;40566;50.006;36.180;2022-09-19T22:11:00;12.25;;;5.82;;
54665;SDS011;40566;50.006;36.180;2022-09-19T22:16:10;13.63;;;5.75;;
54665;SDS011;40566;50.006;36.180;2022-09-19T22:21:14;11.57;;;5.82;;
54665;SDS011;40566;50.006;36.180;2022-09-19T22:26:17;11.55;;;6.22;;
54665;SDS011;40566;50.006;36.180;2022-09-19T22:31:20;12.43;;;5.68;;
54665;SDS011;40566;50.006;36.180;2022-09-19T22:36:24;11.45;;;5.68;;
54665;SDS011;40566;50.006;36.180;2022-09-19T22:41:29;12.70;;;6.22;;
54665;SDS011;40566;50.006;36.180;2022-09-19T22:46:31;11.23;;;6.10;;
54665;SDS011;40566;50.006;36.180;2022-09-19T22:51:32;11.20;;;6.00;;
54665;SDS011;40566;50.006;36.180;2022-09-19T22:56:32;14.25;;;6.68;;
54665;SDS011;40566;50.006;36.180;2022-09-19T23:01:33;11.43;;;6.60;;
54665;SDS011;40566;50.006;36.180;2022-09-19T23:06:35;11.80;;;6.63;;
54665;SDS011;40566;50.006;36.180;2022-09-19T23:11:37;13.85;;;7.05;;
54665;SDS011;40566;50.006;36.180;2022-09-19T23:16:40;13.43;;;6.88;;
54665;SDS011;40566;50.006;36.180;2022-09-19T23:21:43;13.48;;;7.22;;
54665;SDS011;40566;50.006;36.180;2022-09-19T23:26:45;14.05;;;7.25;;
54665;SDS011;40566;50.006;36.180;2022-09-19T23:31:46;12.15;;;6.10;;
54665;SDS011;40566;50.006;36.180;2022-09-19T23:36:48;12.63;;;6.80;;
54665;SDS011;40566;50.006;36.180;2022-09-19T23:41:49;11.45;;;6.55;;
54665;SDS011;40566;50.006;36.180;2022-09-19T23:46:50;12.80;;;6.65;;
54665;SDS011;40566;50.006;36.180;2022-09-19T23:51:51;11.38;;;6.70;;
54665;SDS011;40566;50.006;36.180;2022-09-19T23:56:51;13.15;;;7.22;;
